首页
METAR-TAF:

METAR-TAF

机场 :

Morganton, 北卡罗来纳州, 美国

纬度: 35-49-17N, 经度: 081-36-39W, 海拔: 387米

当前天气观测

该预报发布于10分钟前的23:35 UTC
静风
温度 20°C
湿度 64%
气压 1020 hPa
能見度: 16.1公里
多云层高于8000英尺

METAR: KMRN 112335Z AUTO 00000KT 10SM BKN080 20/13 A3013 RMK AO2 T01970130

时间: 19:45 (23:45 UTC)


TAF: 丢失

超过4000个机场的气象观测和天气预报(METAR&TAF报告)。

可查询的气象台以黄色和红色小点在地图上表示。

将鼠标移到小点上方,可查看气象台名称。

然后点击查看天气观测和预报。

如需切换地图:点击带黑十字的绿色按钮放大地图;点击带横线的绿色按钮缩小地图;或者点击绿色箭头查看邻近地区的地图。


METAR-TAF: